Time,TemperatureF,DewpointF,PressureIn,WindDirection,WindDirectionDegrees,WindSpeedMPH,WindSpeedGustMPH,Humidity,HourlyPrecipIn,Conditions,Clouds,dailyrainin,SoftwareType,DateUTC
2013-01-22 00:00:00,8.8,-3.0,30.15,West,263,2.0,2.0,58,0.00,,,0.00,Wunderground v.1.15,2013-01-22 05:00:00,
2013-01-22 00:10:00,8.6,-2.5,30.15,West,260,2.0,2.0,60,0.00,,,0.00,Wunderground v.1.15,2013-01-22 05:10:00,
2013-01-22 00:15:00,8.6,-2.5,30.15,West,259,1.0,4.0,60,0.00,,,0.00,Wunderground v.1.15,2013-01-22 05:15:00,
2013-01-22 00:20:00,8.6,-2.5,30.15,West,264,2.0,2.0,60,0.00,,,0.00,Wunderground v.1.15,2013-01-22 05:20:00,
2013-01-22 00:25:00,8.6,-2.5,30.15,WSW,247,2.0,2.0,60,0.00,,,0.00,Wunderground v.1.15,2013-01-22 05:25:00,
2013-01-22 00:30:00,8.4,-2.3,30.15,NE,49,1.0,5.0,61,0.00,,,0.00,Wunderground v.1.15,2013-01-22 05:30:00,
2013-01-22 00:40:00,8.3,-2.4,30.15,West,269,2.0,2.0,61,0.00,,,0.00,Wunderground v.1.15,2013-01-22 05:40:00,
2013-01-22 00:45:00,8.3,-2.1,30.15,WSW,248,1.0,2.0,62,0.00,,,0.00,Wunderground v.1.15,2013-01-22 05:45:00,
2013-01-22 00:55:00,8.1,-2.6,30.15,West,267,3.0,3.0,61,0.00,,,0.00,Wunderground v.1.15,2013-01-22 05:55:00,
2013-01-22 01:00:00,8.1,-2.6,30.15,WSW,250,2.0,2.0,61,0.00,,,0.00,Wunderground v.1.15,2013-01-22 06:00:00,
2013-01-22 01:05:00,7.9,-2.4,30.15,West,271,1.0,4.0,62,0.00,,,0.00,Wunderground v.1.15,2013-01-22 06:05:00,
2013-01-22 01:15:00,7.9,-2.4,30.15,WSW,242,1.0,2.0,62,0.00,,,0.00,Wunderground v.1.15,2013-01-22 06:15:00,
2013-01-22 01:25:00,7.9,-2.8,30.16,West,279,2.0,6.0,61,0.00,,,0.00,Wunderground v.1.15,2013-01-22 06:25:00,
2013-01-22 01:30:00,7.7,-2.6,30.16,SW,230,2.0,2.0,62,0.00,,,0.00,Wunderground v.1.15,2013-01-22 06:30:00,
2013-01-22 01:40:00,7.6,-2.7,30.16,SW,221,0.0,1.0,62,0.00,,,0.00,Wunderground v.1.15,2013-01-22 06:40:00,
2013-01-22 01:45:00,7.4,-2.6,30.16,WSW,237,1.0,1.0,63,0.00,,,0.00,Wunderground v.1.15,2013-01-22 06:45:00,
2013-01-22 01:55:00,7.4,-4.0,30.16,West,263,2.0,2.0,59,0.00,,,0.00,Wunderground v.1.15,2013-01-22 06:55:00,
2013-01-22 02:00:00,7.4,-4.3,30.16,NNE,13,1.0,1.0,58,0.00,,,0.00,Wunderground v.1.15,2013-01-22 07:00:00,
2013-01-22 02:10:00,7.4,-5.0,30.17,West,275,1.0,1.0,56,0.00,,,0.00,Wunderground v.1.15,2013-01-22 07:10:00,
2013-01-22 02:15:00,7.4,-5.0,30.17,WSW,250,2.0,2.0,56,0.00,,,0.00,Wunderground v.1.15,2013-01-22 07:15:00,
2013-01-22 02:25:00,7.4,-5.0,30.17,West,261,1.0,2.0,56,0.00,,,0.00,Wunderground v.1.15,2013-01-22 07:25:00,
2013-01-22 02:30:00,7.2,-5.2,30.17,West,265,2.0,2.0,56,0.00,,,0.00,Wunderground v.1.15,2013-01-22 07:30:00,
2013-01-22 02:40:00,7.2,-5.2,30.18,West,263,2.0,4.0,56,0.00,,,0.00,Wunderground v.1.15,2013-01-22 07:40:00,
2013-01-22 02:45:00,7.2,-5.6,30.18,West,273,2.0,4.0,55,0.00,,,0.00,Wunderground v.1.15,2013-01-22 07:45:00,
2013-01-22 02:55:00,7.2,-5.2,30.18,WSW,256,1.0,2.0,56,0.00,,,0.00,Wunderground v.1.15,2013-01-22 07:55:00,
2013-01-22 03:00:00,7.2,-4.9,30.18,WSW,240,1.0,1.0,57,0.00,,,0.00,Wunderground v.1.15,2013-01-22 08:00:00,
2013-01-22 03:10:00,7.0,-5.0,30.18,West,261,1.0,1.0,57,0.00,,,0.00,Wunderground v.1.15,2013-01-22 08:10:00,
2013-01-22 03:15:00,7.0,-5.0,30.18,West,263,1.0,1.0,57,0.00,,,0.00,Wunderground v.1.15,2013-01-22 08:15:00,
2013-01-22 03:25:00,7.0,-4.7,30.18,SSW,213,1.0,1.0,58,0.00,,,0.00,Wunderground v.1.15,2013-01-22 08:25:00,
2013-01-22 03:30:00,6.9,-4.8,30.18,West,259,0.0,0.0,58,0.00,,,0.00,Wunderground v.1.15,2013-01-22 08:30:00,
2013-01-22 03:40:00,6.9,-4.8,30.18,NW,315,1.0,1.0,58,0.00,,,0.00,Wunderground v.1.15,2013-01-22 08:40:00,
2013-01-22 03:45:00,6.9,-5.1,30.18,SW,221,1.0,1.0,57,0.00,,,0.00,Wunderground v.1.15,2013-01-22 08:45:00,
2013-01-22 03:55:00,6.9,-4.8,30.18,West,260,1.0,1.0,58,0.00,,,0.00,Wunderground v.1.15,2013-01-22 08:55:00,
2013-01-22 04:00:00,6.9,-5.1,30.18,WSW,258,1.0,1.0,57,0.00,,,0.00,Wunderground v.1.15,2013-01-22 09:00:00,
2013-01-22 04:10:00,6.9,-5.1,30.18,WSW,257,1.0,1.0,57,0.00,,,0.00,Wunderground v.1.15,2013-01-22 09:10:00,
2013-01-22 04:15:00,6.7,-5.3,30.18,WSW,252,0.0,1.0,57,0.00,,,0.00,Wunderground v.1.15,2013-01-22 09:15:00,
2013-01-22 04:25:00,6.7,-5.0,30.18,West,259,1.0,2.0,58,0.00,,,0.00,Wunderground v.1.15,2013-01-22 09:25:00,
2013-01-22 04:30:00,6.7,-4.6,30.18,West,261,1.0,2.0,59,0.00,,,0.00,Wunderground v.1.15,2013-01-22 09:30:00,
2013-01-22 04:40:00,6.5,-5.2,30.18,West,276,1.0,1.0,58,0.00,,,0.00,Wunderground v.1.15,2013-01-22 09:40:00,
2013-01-22 04:45:00,6.5,-5.2,30.18,West,271,1.0,4.0,58,0.00,,,0.00,Wunderground v.1.15,2013-01-22 09:45:00,
2013-01-22 04:55:00,6.5,-5.5,30.19,West,265,1.0,2.0,57,0.00,,,0.00,Wunderground v.1.15,2013-01-22 09:55:00,
2013-01-22 05:00:00,6.5,-5.5,30.19,West,279,1.0,1.0,57,0.00,,,0.00,Wunderground v.1.15,2013-01-22 10:00:00,
2013-01-22 05:10:00,6.3,-5.3,30.20,WSW,251,1.0,1.0,58,0.00,,,0.00,Wunderground v.1.15,2013-01-22 10:10:00,
2013-01-22 05:15:00,6.3,-5.3,30.20,WSW,248,1.0,2.0,58,0.00,,,0.00,Wunderground v.1.15,2013-01-22 10:15:00,
2013-01-22 05:25:00,6.3,-5.3,30.20,West,275,2.0,2.0,58,0.00,,,0.00,Wunderground v.1.15,2013-01-22 10:25:00,
2013-01-22 05:30:00,6.1,-5.2,30.20,South,188,1.0,2.0,59,0.00,,,0.00,Wunderground v.1.15,2013-01-22 10:30:00,
2013-01-22 05:40:00,6.1,-5.2,30.20,SSE,151,1.0,1.0,59,0.00,,,0.00,Wunderground v.1.15,2013-01-22 10:40:00,
2013-01-22 05:45:00,6.0,-4.9,30.20,North,9,1.0,1.0,60,0.00,,,0.00,Wunderground v.1.15,2013-01-22 10:45:00,
2013-01-22 05:55:00,6.0,-5.3,30.21,West,273,1.0,1.0,59,0.00,,,0.00,Wunderground v.1.15,2013-01-22 10:55:00,
2013-01-22 06:00:00,6.0,-5.3,30.21,West,275,1.0,1.0,59,0.00,,,0.00,Wunderground v.1.15,2013-01-22 11:00:00,
2013-01-22 06:05:00,6.0,-5.3,30.21,SW,231,1.0,1.0,59,0.00,,,0.00,Wunderground v.1.15,2013-01-22 11:05:00,
2013-01-22 06:15:00,5.8,-5.5,30.21,SW,227,1.0,4.0,59,0.00,,,0.00,Wunderground v.1.15,2013-01-22 11:15:00,
2013-01-22 06:25:00,5.8,-5.1,30.22,West,273,1.0,3.0,60,0.00,,,0.00,Wunderground v.1.15,2013-01-22 11:25:00,
2013-01-22 06:30:00,5.6,-5.7,30.22,WSW,257,1.0,1.0,59,0.00,,,0.00,Wunderground v.1.15,2013-01-22 11:30:00,
2013-01-22 06:40:00,5.6,-5.7,30.23,WNW,287,1.0,1.0,59,0.00,,,0.00,Wunderground v.1.15,2013-01-22 11:40:00,
2013-01-22 06:45:00,5.6,-5.7,30.23,West,279,1.0,1.0,59,0.00,,,0.00,Wunderground v.1.15,2013-01-22 11:45:00,
2013-01-22 06:55:00,5.6,-5.7,30.23,West,260,0.0,1.0,59,0.00,,,0.00,Wunderground v.1.15,2013-01-22 11:55:00,
2013-01-22 07:00:00,5.4,-5.5,30.23,SW,217,1.0,1.0,60,0.00,,,0.00,Wunderground v.1.15,2013-01-22 12:00:00,
2013-01-22 07:05:00,5.4,-5.5,30.24,West,261,1.0,1.0,60,0.00,,,0.00,Wunderground v.1.15,2013-01-22 12:05:00,
2013-01-22 07:15:00,5.4,-5.5,30.24,WSW,254,1.0,1.0,60,0.00,,,0.00,Wunderground v.1.15,2013-01-22 12:15:00,
2013-01-22 07:25:00,5.2,-5.3,30.24,NNE,13,0.0,1.0,61,0.00,,,0.00,Wunderground v.1.15,2013-01-22 12:25:00,
2013-01-22 07:30:00,5.0,-5.5,30.24,West,263,1.0,1.0,61,0.00,,,0.00,Wunderground v.1.15,2013-01-22 12:30:00,
2013-01-22 07:40:00,5.0,-5.5,30.25,WSW,242,1.0,1.0,61,0.00,,,0.00,Wunderground v.1.15,2013-01-22 12:40:00,
2013-01-22 07:45:00,5.0,-5.2,30.25,WSW,242,0.0,1.0,62,0.00,,,0.00,Wunderground v.1.15,2013-01-22 12:45:00,
2013-01-22 07:55:00,5.0,-4.9,30.25,WSW,242,0.0,0.0,63,0.00,,,0.00,Wunderground v.1.15,2013-01-22 12:55:00,
2013-01-22 08:00:00,4.8,-5.1,30.25,WSW,256,1.0,2.0,63,0.00,,,0.00,Wunderground v.1.15,2013-01-22 13:00:00,
2013-01-22 08:05:00,5.0,-4.9,30.26,West,267,1.0,2.0,63,0.00,,,0.00,Wunderground v.1.15,2013-01-22 13:05:00,
2013-01-22 08:15:00,5.0,-5.2,30.26,WSW,250,1.0,2.0,62,0.00,,,0.00,Wunderground v.1.15,2013-01-22 13:15:00,
2013-01-22 08:25:00,5.2,-5.3,30.27,WSW,248,1.0,1.0,61,0.00,,,0.00,Wunderground v.1.15,2013-01-22 13:25:00,
2013-01-22 08:30:00,5.2,-5.3,30.27,WSW,247,1.0,1.0,61,0.00,,,0.00,Wunderground v.1.15,2013-01-22 13:30:00,
2013-01-22 08:40:00,5.4,-5.5,30.28,West,267,1.0,3.0,60,0.00,,,0.00,Wunderground v.1.15,2013-01-22 13:40:00,
2013-01-22 08:45:00,5.4,-5.5,30.28,WSW,237,1.0,3.0,60,0.00,,,0.00,Wunderground v.1.15,2013-01-22 13:45:00,
2013-01-22 08:55:00,5.6,-5.3,30.28,WSW,247,2.0,4.0,60,0.00,,,0.00,Wunderground v.1.15,2013-01-22 13:55:00,
2013-01-22 09:00:00,5.8,-5.1,30.28,WSW,237,1.0,1.0,60,0.00,,,0.00,Wunderground v.1.15,2013-01-22 14:00:00,
2013-01-22 09:05:00,6.0,-5.3,30.28,SSW,212,1.0,2.0,59,0.00,,,0.00,Wunderground v.1.15,2013-01-22 14:05:00,
2013-01-22 09:15:00,6.3,-5.0,30.28,West,265,1.0,2.0,59,0.00,,,0.00,Wunderground v.1.15,2013-01-22 14:15:00,
2013-01-22 09:25:00,6.5,-4.8,30.30,WNW,284,1.0,4.0,59,0.00,,,0.00,Wunderground v.1.15,2013-01-22 14:25:00,
2013-01-22 09:30:00,6.9,-4.8,30.30,NNE,25,1.0,1.0,58,0.00,,,0.00,Wunderground v.1.15,2013-01-22 14:30:00,
2013-01-22 09:40:00,7.0,-5.4,30.30,WSW,257,1.0,1.0,56,0.00,,,0.00,Wunderground v.1.15,2013-01-22 14:40:00,
2013-01-22 09:45:00,7.0,-4.7,30.30,West,265,1.0,3.0,58,0.00,,,0.00,Wunderground v.1.15,2013-01-22 14:45:00,
2013-01-22 09:55:00,7.2,-4.5,30.30,SW,225,1.0,3.0,58,0.00,,,0.00,Wunderground v.1.15,2013-01-22 14:55:00,
2013-01-22 10:00:00,7.0,-4.7,30.30,West,267,2.0,3.0,58,0.00,,,0.00,Wunderground v.1.15,2013-01-22 15:00:00,
2013-01-22 10:10:00,7.6,-4.1,30.32,ENE,70,1.0,1.0,58,0.00,,,0.00,Wunderground v.1.15,2013-01-22 15:10:00,
2013-01-22 10:15:00,7.9,-3.8,30.32,West,271,1.0,1.0,58,0.00,,,0.00,Wunderground v.1.15,2013-01-22 15:15:00,
2013-01-22 10:25:00,7.9,-3.8,30.32,NNE,24,2.0,2.0,58,0.00,,,0.00,Wunderground v.1.15,2013-01-22 15:25:00,
2013-01-22 10:30:00,8.3,-3.5,30.32,WNW,283,1.0,1.0,58,0.00,,,0.00,Wunderground v.1.15,2013-01-22 15:30:00,
2013-01-22 10:40:00,9.0,-3.2,30.32,SW,234,2.0,5.0,57,0.00,,,0.00,Wunderground v.1.15,2013-01-22 15:40:00,
2013-01-22 10:45:00,9.3,-3.3,30.32,WSW,238,2.0,5.0,56,0.00,,,0.00,Wunderground v.1.15,2013-01-22 15:45:00,
2013-01-22 10:55:00,9.2,-3.7,30.32,WSW,250,2.0,3.0,55,0.00,,,0.00,Wunderground v.1.15,2013-01-22 15:55:00,
2013-01-22 11:00:00,9.3,-3.3,30.32,SW,222,2.0,2.0,56,0.00,,,0.00,Wunderground v.1.15,2013-01-22 16:00:00,
2013-01-22 11:10:00,9.3,-3.3,30.32,West,273,2.0,6.0,56,0.00,,,0.00,Wunderground v.1.15,2013-01-22 16:10:00,
2013-01-22 11:15:00,9.9,-1.9,30.32,SSW,205,2.0,6.0,58,0.00,,,0.00,Wunderground v.1.15,2013-01-22 16:15:00,
2013-01-22 11:25:00,10.7,-1.2,30.32,West,259,2.0,4.0,58,0.00,,,0.00,Wunderground v.1.15,2013-01-22 16:25:00,
2013-01-22 11:30:00,10.5,-2.5,30.32,West,265,1.0,1.0,55,0.00,,,0.00,Wunderground v.1.15,2013-01-22 16:30:00,
2013-01-22 11:40:00,11.6,-1.5,30.32,WSW,243,1.0,3.0,55,0.00,,,0.00,Wunderground v.1.15,2013-01-22 16:40:00,
2013-01-22 11:45:00,10.9,-2.5,30.32,WSW,238,2.0,3.0,54,0.00,,,0.00,Wunderground v.1.15,2013-01-22 16:45:00,
2013-01-22 11:55:00,10.5,-3.7,30.32,WSW,246,2.0,4.0,52,0.00,,,0.00,Wunderground v.1.15,2013-01-22 16:55:00,
2013-01-22 12:00:00,10.2,-3.2,30.32,WSW,252,1.0,2.0,54,0.00,,,0.00,Wunderground v.1.15,2013-01-22 17:00:00,
2013-01-22 12:10:00,10.5,-4.1,30.31,SW,215,3.0,3.0,51,0.00,,,0.00,Wunderground v.1.15,2013-01-22 17:10:00,
2013-01-22 12:15:00,10.5,-2.9,30.31,SW,224,2.0,3.0,54,0.00,,,0.00,Wunderground v.1.15,2013-01-22 17:15:00,
2013-01-22 12:25:00,11.2,-3.9,30.31,NNE,32,2.0,2.0,50,0.00,,,0.00,Wunderground v.1.15,2013-01-22 17:25:00,
2013-01-22 12:30:00,11.2,-2.6,30.31,WSW,245,2.0,2.0,53,0.00,,,0.00,Wunderground v.1.15,2013-01-22 17:30:00,
2013-01-22 12:40:00,11.2,-3.4,30.30,SSW,198,2.0,2.0,51,0.00,,,0.00,Wunderground v.1.15,2013-01-22 17:40:00,
2013-01-22 12:45:00,10.5,-4.1,30.30,West,273,2.0,2.0,51,0.00,,,0.00,Wunderground v.1.15,2013-01-22 17:45:00,
2013-01-22 12:55:00,10.7,-2.7,30.30,NNE,30,2.0,2.0,54,0.00,,,0.00,Wunderground v.1.15,2013-01-22 17:55:00,
2013-01-22 13:00:00,11.6,-3.9,30.30,SW,217,2.0,3.0,49,0.00,,,0.00,Wunderground v.1.15,2013-01-22 18:00:00,
2013-01-22 13:05:00,11.7,-4.7,30.29,North,360,2.0,3.0,47,0.00,,,0.00,Wunderground v.1.15,2013-01-22 18:05:00,
2013-01-22 13:15:00,12.1,-3.4,30.29,WSW,254,2.0,3.0,49,0.00,,,0.00,Wunderground v.1.15,2013-01-22 18:15:00,
2013-01-22 13:25:00,11.9,-2.4,30.29,WSW,238,1.0,2.0,52,0.00,,,0.00,Wunderground v.1.15,2013-01-22 18:25:00,
2013-01-22 13:30:00,11.4,-2.8,30.29,WSW,255,1.0,2.0,52,0.00,,,0.00,Wunderground v.1.15,2013-01-22 18:30:00,
2013-01-22 13:40:00,11.6,-3.1,30.28,West,267,2.0,2.0,51,0.00,,,0.00,Wunderground v.1.15,2013-01-22 18:40:00,
2013-01-22 13:45:00,12.4,-2.7,30.28,East,95,2.0,2.0,50,0.00,,,0.00,Wunderground v.1.15,2013-01-22 18:45:00,
2013-01-22 13:55:00,13.5,-2.1,30.27,West,262,1.0,3.0,49,0.00,,,0.00,Wunderground v.1.15,2013-01-22 18:55:00,
2013-01-22 14:00:00,12.9,-2.7,30.27,SSW,213,1.0,1.0,49,0.00,,,0.00,Wunderground v.1.15,2013-01-22 19:00:00,
2013-01-22 14:10:00,12.9,-2.3,30.27,West,271,1.0,1.0,50,0.00,,,0.00,Wunderground v.1.15,2013-01-22 19:10:00,
2013-01-22 14:15:00,12.9,-3.1,30.27,SW,217,2.0,2.0,48,0.00,,,0.00,Wunderground v.1.15,2013-01-22 19:15:00,
2013-01-22 14:25:00,12.6,-3.9,30.27,NE,49,3.0,3.0,47,0.00,,,0.00,Wunderground v.1.15,2013-01-22 19:25:00,
2013-01-22 14:30:00,12.9,-1.4,30.27,WSW,252,3.0,3.0,52,0.00,,,0.00,Wunderground v.1.15,2013-01-22 19:30:00,
2013-01-22 14:40:00,14.1,-3.4,30.27,ESE,117,2.0,11.0,45,0.00,,,0.00,Wunderground v.1.15,2013-01-22 19:40:00,
2013-01-22 14:45:00,13.6,-3.8,30.27,West,263,3.0,11.0,45,0.00,,,0.00,Wunderground v.1.15,2013-01-22 19:45:00,
2013-01-22 14:55:00,14.1,-2.0,30.27,South,186,2.0,3.0,48,0.00,,,0.00,Wunderground v.1.15,2013-01-22 19:55:00,
2013-01-22 15:00:00,13.8,-3.7,30.27,SSW,204,2.0,2.0,45,0.00,,,0.00,Wunderground v.1.15,2013-01-22 20:00:00,
2013-01-22 15:05:00,13.6,-2.9,30.27,WSW,258,2.0,2.0,47,0.00,,,0.00,Wunderground v.1.15,2013-01-22 20:05:00,
2013-01-22 15:15:00,14.0,-3.5,30.27,WSW,253,2.0,2.0,45,0.00,,,0.00,Wunderground v.1.15,2013-01-22 20:15:00,
2013-01-22 15:25:00,13.8,-3.2,30.28,WSW,248,1.0,1.0,46,0.00,,,0.00,Wunderground v.1.15,2013-01-22 20:25:00,
2013-01-22 15:31:00,14.1,-2.5,30.28,WSW,252,1.0,1.0,47,0.00,,,0.00,Wunderground v.1.15,2013-01-22 20:31:00,
2013-01-22 15:40:00,13.6,-2.9,30.28,WSW,243,1.0,1.0,47,0.00,,,0.00,Wunderground v.1.15,2013-01-22 20:40:00,
2013-01-22 15:45:00,13.5,-4.4,30.28,WSW,238,2.0,2.0,44,0.00,,,0.00,Wunderground v.1.15,2013-01-22 20:45:00,
2013-01-22 15:55:00,13.8,-3.7,30.28,SSW,197,1.0,3.0,45,0.00,,,0.00,Wunderground v.1.15,2013-01-22 20:55:00,
2013-01-22 16:00:00,13.3,-3.7,30.28,SW,221,2.0,4.0,46,0.00,,,0.00,Wunderground v.1.15,2013-01-22 21:00:00,
2013-01-22 16:10:00,13.5,-3.0,30.29,West,269,1.0,2.0,47,0.00,,,0.00,Wunderground v.1.15,2013-01-22 21:10:00,
2013-01-22 16:15:00,13.3,-3.2,30.29,West,281,1.0,2.0,47,0.00,,,0.00,Wunderground v.1.15,2013-01-22 21:15:00,
2013-01-22 16:25:00,13.6,-3.4,30.28,West,259,1.0,3.0,46,0.00,,,0.00,Wunderground v.1.15,2013-01-22 21:25:00,
2013-01-22 16:30:00,13.3,-3.2,30.28,SW,217,1.0,1.0,47,0.00,,,0.00,Wunderground v.1.15,2013-01-22 21:30:00,
2013-01-22 16:40:00,13.1,-3.8,30.28,South,180,1.0,1.0,46,0.00,,,0.00,Wunderground v.1.15,2013-01-22 21:40:00,
2013-01-22 16:45:00,12.9,-4.5,30.28,South,191,1.0,1.0,45,0.00,,,0.00,Wunderground v.1.15,2013-01-22 21:45:00,
2013-01-22 16:55:00,12.8,-3.2,30.28,West,260,1.0,1.0,48,0.00,,,0.00,Wunderground v.1.15,2013-01-22 21:55:00,
2013-01-22 17:00:00,12.8,-3.7,30.28,West,265,1.0,1.0,47,0.00,,,0.00,Wunderground v.1.15,2013-01-22 22:00:00,
2013-01-22 17:10:00,12.6,-3.9,30.29,WSW,252,1.0,1.0,47,0.00,,,0.00,Wunderground v.1.15,2013-01-22 22:10:00,
2013-01-22 17:15:00,12.4,-4.0,30.29,WNW,300,1.0,1.0,47,0.00,,,0.00,Wunderground v.1.15,2013-01-22 22:15:00,
2013-01-22 17:25:00,12.3,-4.1,30.29,WSW,251,1.0,1.0,47,0.00,,,0.00,Wunderground v.1.15,2013-01-22 22:25:00,
2013-01-22 17:30:00,12.1,-4.3,30.29,WSW,250,1.0,1.0,47,0.00,,,0.00,Wunderground v.1.15,2013-01-22 22:30:00,
2013-01-22 17:40:00,11.9,-4.1,30.29,WSW,246,1.0,1.0,48,0.00,,,0.00,Wunderground v.1.15,2013-01-22 22:40:00,
2013-01-22 17:45:00,11.7,-3.8,30.29,WSW,246,0.0,1.0,49,0.00,,,0.00,Wunderground v.1.15,2013-01-22 22:45:00,
2013-01-22 17:55:00,11.6,-3.9,30.29,WSW,256,0.0,1.0,49,0.00,,,0.00,Wunderground v.1.15,2013-01-22 22:55:00,
2013-01-22 18:00:00,11.6,-3.9,30.29,SW,229,1.0,1.0,49,0.00,,,0.00,Wunderground v.1.15,2013-01-22 23:00:00,
2013-01-22 18:10:00,11.4,-4.1,30.29,West,263,1.0,3.0,49,0.00,,,0.00,Wunderground v.1.15,2013-01-22 23:10:00,
2013-01-22 18:15:00,11.4,-4.5,30.29,West,269,1.0,3.0,48,0.00,,,0.00,Wunderground v.1.15,2013-01-22 23:15:00,
2013-01-22 18:25:00,11.4,-4.5,30.29,WSW,257,1.0,1.0,48,0.00,,,0.00,Wunderground v.1.15,2013-01-22 23:25:00,
2013-01-22 18:30:00,11.4,-4.5,30.29,WSW,252,1.0,1.0,48,0.00,,,0.00,Wunderground v.1.15,2013-01-22 23:30:00,
2013-01-22 18:40:00,11.4,-4.1,30.30,West,267,0.0,0.0,49,0.00,,,0.00,Wunderground v.1.15,2013-01-22 23:40:00,
2013-01-22 18:45:00,11.4,-3.7,30.30,West,260,0.0,0.0,50,0.00,,,0.00,Wunderground v.1.15,2013-01-22 23:45:00,
2013-01-22 18:55:00,11.2,-3.4,30.31,West,261,0.0,0.0,51,0.00,,,0.00,Wunderground v.1.15,2013-01-22 23:55:00,
2013-01-22 19:00:00,11.1,-3.5,30.31,West,261,0.0,0.0,51,0.00,,,0.00,Wunderground v.1.15,2013-01-23 00:00:00,
2013-01-22 19:10:00,11.1,-3.1,30.30,WSW,244,0.0,0.0,52,0.00,,,0.00,Wunderground v.1.15,2013-01-23 00:10:00,
2013-01-22 19:15:00,11.1,-3.1,30.30,WSW,253,1.0,1.0,52,0.00,,,0.00,Wunderground v.1.15,2013-01-23 00:15:00,
2013-01-22 19:25:00,11.2,-3.4,30.30,WSW,254,1.0,1.0,51,0.00,,,0.00,Wunderground v.1.15,2013-01-23 00:25:00,
2013-01-22 19:30:00,11.2,-3.9,30.30,NNW,336,1.0,1.0,50,0.00,,,0.00,Wunderground v.1.15,2013-01-23 00:30:00,
2013-01-22 19:40:00,11.2,-3.4,30.30,West,261,1.0,1.0,51,0.00,,,0.00,Wunderground v.1.15,2013-01-23 00:40:00,
2013-01-22 19:45:00,11.2,-3.4,30.30,WSW,256,0.0,1.0,51,0.00,,,0.00,Wunderground v.1.15,2013-01-23 00:45:00,
2013-01-22 19:55:00,11.4,-3.3,30.30,South,178,1.0,1.0,51,0.00,,,0.00,Wunderground v.1.15,2013-01-23 00:55:00,
2013-01-22 20:00:00,11.4,-3.3,30.30,South,182,0.0,1.0,51,0.00,,,0.00,Wunderground v.1.15,2013-01-23 01:00:00,
2013-01-22 20:10:00,11.4,-2.8,30.30,SSW,208,1.0,1.0,52,0.00,,,0.00,Wunderground v.1.15,2013-01-23 01:10:00,
2013-01-22 20:15:00,11.4,-2.8,30.30,West,275,1.0,1.0,52,0.00,,,0.00,Wunderground v.1.15,2013-01-23 01:15:00,
2013-01-22 20:25:00,11.4,-2.4,30.30,WSW,246,0.0,1.0,53,0.00,,,0.00,Wunderground v.1.15,2013-01-23 01:25:00,
2013-01-22 20:30:00,11.4,-2.0,30.30,WSW,246,0.0,0.0,54,0.00,,,0.00,Wunderground v.1.15,2013-01-23 01:30:00,
2013-01-22 20:40:00,11.2,-3.0,30.30,West,268,1.0,1.0,52,0.00,,,0.00,Wunderground v.1.15,2013-01-23 01:40:00,
2013-01-22 20:50:00,11.1,-2.7,30.30,West,268,0.0,0.0,53,0.00,,,0.00,Wunderground v.1.15,2013-01-23 01:50:00,
2013-01-22 21:00:00,10.9,-3.3,30.30,SW,215,1.0,1.0,52,0.00,,,0.00,Wunderground v.1.15,2013-01-23 02:00:00,
2013-01-22 21:10:00,10.7,-3.5,30.30,West,271,1.0,1.0,52,0.00,,,0.00,Wunderground v.1.15,2013-01-23 02:10:00,
2013-01-22 21:15:00,10.7,-3.5,30.30,WSW,242,1.0,1.0,52,0.00,,,0.00,Wunderground v.1.15,2013-01-23 02:15:00,
2013-01-22 21:25:00,10.7,-3.1,30.30,West,264,0.0,1.0,53,0.00,,,0.00,Wunderground v.1.15,2013-01-23 02:25:00,
2013-01-22 21:30:00,10.7,-3.1,30.30,West,269,1.0,1.0,53,0.00,,,0.00,Wunderground v.1.15,2013-01-23 02:30:00,
2013-01-22 21:40:00,10.7,-2.3,30.30,West,262,1.0,1.0,55,0.00,,,0.00,Wunderground v.1.15,2013-01-23 02:40:00,
2013-01-22 21:45:00,10.7,-2.7,30.30,West,262,0.0,1.0,54,0.00,,,0.00,Wunderground v.1.15,2013-01-23 02:45:00,
2013-01-22 21:55:00,10.7,-2.7,30.30,WSW,246,1.0,4.0,54,0.00,,,0.00,Wunderground v.1.15,2013-01-23 02:55:00,
2013-01-22 22:00:00,10.7,-2.7,30.30,WSW,246,1.0,3.0,54,0.00,,,0.00,Wunderground v.1.15,2013-01-23 03:00:00,
2013-01-22 22:10:00,10.7,-2.7,30.30,SW,236,1.0,1.0,54,0.00,,,0.00,Wunderground v.1.15,2013-01-23 03:10:00,
2013-01-22 22:15:00,10.7,-3.1,30.30,SW,236,0.0,1.0,53,0.00,,,0.00,Wunderground v.1.15,2013-01-23 03:15:00,
2013-01-22 22:25:00,10.7,-2.3,30.31,SSW,207,0.0,0.0,55,0.00,,,0.00,Wunderground v.1.15,2013-01-23 03:25:00,
2013-01-22 22:30:00,10.7,-2.3,30.31,SSW,207,0.0,0.0,55,0.00,,,0.00,Wunderground v.1.15,2013-01-23 03:30:00,
2013-01-22 22:40:00,10.7,-2.3,30.31,West,261,0.0,1.0,55,0.00,,,0.00,Wunderground v.1.15,2013-01-23 03:40:00,
2013-01-22 22:45:00,10.7,-2.3,30.31,West,272,1.0,1.0,55,0.00,,,0.00,Wunderground v.1.15,2013-01-23 03:45:00,
2013-01-22 22:55:00,10.7,-2.3,30.31,WSW,252,1.0,1.0,55,0.00,,,0.00,Wunderground v.1.15,2013-01-23 03:55:00,
2013-01-22 23:00:00,10.7,-2.3,30.31,West,261,0.0,0.0,55,0.00,,,0.00,Wunderground v.1.15,2013-01-23 04:00:00,
2013-01-22 23:10:00,10.5,-2.1,30.31,WSW,248,0.0,2.0,56,0.00,,,0.00,Wunderground v.1.15,2013-01-23 04:10:00,
2013-01-22 23:15:00,10.5,-2.5,30.31,West,269,0.0,2.0,55,0.00,,,0.00,Wunderground v.1.15,2013-01-23 04:15:00,
2013-01-22 23:25:00,10.5,-2.5,30.31,West,269,0.0,0.0,55,0.00,,,0.00,Wunderground v.1.15,2013-01-23 04:25:00,
2013-01-22 23:30:00,10.5,-2.1,30.31,West,269,0.0,0.0,56,0.00,,,0.00,Wunderground v.1.15,2013-01-23 04:30:00,
2013-01-22 23:40:00,10.5,-2.1,30.31,SW,232,1.0,1.0,56,0.00,,,0.00,Wunderground v.1.15,2013-01-23 04:40:00,
2013-01-22 23:45:00,10.4,-2.2,30.31,SW,225,0.0,1.0,56,0.00,,,0.00,Wunderground v.1.15,2013-01-23 04:45:00,
2013-01-22 23:55:00,10.4,-2.2,30.31,WSW,240,0.0,1.0,56,0.00,,,0.00,Wunderground v.1.15,2013-01-23 04:55:00,